Time;durP1;ratioP1;P1;durP2;ratioP2;P2;SDS_P1;SDS_P2;PMS_P1;PMS_P2;Temp;Humidity;BMP_temperature;BMP_pressure;BME280_temperature;BME280_humidity;BME280_pressure;Samples;Min_cycle;Max_cycle;Signal;HPM_P1;HPM_P2
2023/04/01 00:02:17;;;;;;;1999.90;999.90;;;10.00;99.90;;;;;;4995892;28;20193;-72
2023/04/01 00:04:43;;;;;;;1999.90;999.90;;;10.10;99.90;;;;;;4995736;28;20179;-74
2023/04/01 00:07:10;;;;;;;1999.90;999.90;;;10.20;99.90;;;;;;4995680;28;20757;-73
2023/04/01 00:09:36;;;;;;;1999.90;999.90;;;9.90;99.90;;;;;;4995831;28;20180;-73
2023/04/01 00:12:02;;;;;;;1999.90;999.90;;;10.00;99.90;;;;;;4995747;28;20412;-73
2023/04/01 00:14:28;;;;;;;1999.90;999.90;;;10.00;99.90;;;;;;4995512;28;20890;-74
2023/04/01 00:16:53;;;;;;;1999.90;999.90;;;10.00;99.90;;;;;;4995427;28;20219;-73
2023/04/01 00:19:19;;;;;;;1999.90;999.90;;;10.00;99.90;;;;;;4995562;28;20944;-73
2023/04/01 00:21:45;;;;;;;1999.90;999.90;;;9.90;99.90;;;;;;4995527;28;20179;-73
2023/04/01 00:24:10;;;;;;;1999.90;999.90;;;10.20;99.90;;;;;;4995365;28;20204;-73
2023/04/01 00:26:36;;;;;;;1999.90;999.90;;;9.80;99.90;;;;;;4995330;28;20665;-73
2023/04/01 00:29:02;;;;;;;1999.90;999.90;;;10.00;99.90;;;;;;4995346;28;20209;-73
2023/04/01 00:31:27;;;;;;;1999.90;999.90;;;10.00;99.90;;;;;;4995407;28;20164;-73
2023/04/01 00:33:53;;;;;;;1999.90;999.90;;;10.00;99.90;;;;;;4995185;28;20419;-73
2023/04/01 00:36:21;;;;;;;1999.90;999.90;;;9.90;99.90;;;;;;4995230;28;20169;-73
2023/04/01 00:38:47;;;;;;;1999.90;999.90;;;9.90;99.90;;;;;;4995222;28;20200;-73
2023/04/01 00:41:14;;;;;;;1999.90;999.90;;;10.00;99.90;;;;;;4995203;28;20402;-73
2023/04/01 00:43:42;;;;;;;1999.90;999.90;;;10.10;99.90;;;;;;4994926;28;20403;-73
2023/04/01 00:46:07;;;;;;;1999.90;999.90;;;10.00;99.90;;;;;;4994976;28;20493;-73
2023/04/01 00:48:36;;;;;;;1999.90;999.90;;;10.10;99.90;;;;;;4994855;28;20868;-73
2023/04/01 00:51:09;;;;;;;1999.90;999.90;;;10.00;99.90;;;;;;4995126;28;20544;-73
2023/04/01 00:53:39;;;;;;;1999.90;999.90;;;10.10;99.90;;;;;;4994857;28;20423;-72
2023/04/01 00:56:14;;;;;;;1999.90;999.90;;;10.10;99.90;;;;;;4994739;28;20974;-72
2023/04/01 00:58:53;;;;;;;1999.90;999.90;;;10.00;99.90;;;;;;4994797;28;20424;-72
2023/04/01 01:01:22;;;;;;;1999.90;999.90;;;10.00;99.90;;;;;;4994775;28;20435;-73
2023/04/01 01:03:47;;;;;;;1999.90;999.90;;;10.00;99.90;;;;;;4994570;28;20410;-72
2023/04/01 01:07:08;;;;;;;1999.90;999.90;;;10.00;99.90;;;;;;4994704;28;20428;-73
2023/04/01 01:09:51;;;;;;;1999.90;999.90;;;9.90;99.90;;;;;;4992557;28;20252;-73
2023/04/01 01:12:35;;;;;;;1999.90;999.90;;;9.80;99.90;;;;;;4994674;28;20897;-74
2023/04/01 01:15:07;;;;;;;1999.90;999.90;;;9.70;99.90;;;;;;4994331;28;20412;-73
2023/04/01 01:17:44;;;;;;;1999.90;999.90;;;9.70;99.90;;;;;;4994445;28;20427;-74
2023/04/01 01:20:10;;;;;;;1999.90;999.90;;;9.70;99.90;;;;;;4994505;28;20511;-73
2023/04/01 01:22:36;;;;;;;1999.90;999.90;;;9.60;99.90;;;;;;4994566;28;20503;-74
2023/04/01 01:25:21;;;;;;;1999.90;999.90;;;9.60;99.90;;;;;;4994254;28;20180;-74
2023/04/01 01:28:26;;;;;;;1999.90;999.90;;;9.60;99.90;;;;;;4994185;28;20213;-73
2023/04/01 01:30:56;;;;;;;1999.90;999.90;;;9.60;99.90;;;;;;4994256;28;20416;-73
2023/04/01 01:34:12;;;;;;;1999.90;999.90;;;9.60;99.90;;;;;;4994102;28;20431;-73
2023/04/01 01:36:42;;;;;;;1999.90;999.90;;;9.30;99.90;;;;;;4974753;28;20413;-73
2023/04/01 01:39:09;;;;;;;1999.90;999.90;;;9.60;99.90;;;;;;4994200;28;20466;-74
2023/04/01 01:41:37;;;;;;;1999.90;999.90;;;9.80;99.90;;;;;;4994173;28;20477;-74
2023/04/01 01:44:06;;;;;;;1999.90;999.90;;;9.50;99.90;;;;;;4993868;28;20412;-74
2023/04/01 01:46:33;;;;;;;1999.90;999.90;;;9.50;99.90;;;;;;4994052;28;20882;-72
2023/04/01 01:49:01;;;;;;;1999.90;999.90;;;9.50;99.90;;;;;;4993881;28;20467;-73
2023/04/01 01:51:28;;;;;;;1999.90;999.90;;;9.60;99.90;;;;;;4993923;28;20916;-72
2023/04/01 01:53:54;;;;;;;1999.90;999.90;;;9.40;99.90;;;;;;4993650;28;20418;-73
2023/04/01 01:56:23;;;;;;;1999.90;999.90;;;9.50;99.90;;;;;;4993855;28;20436;-73
2023/04/01 01:58:53;;;;;;;1999.90;999.90;;;9.50;99.90;;;;;;4993656;28;20433;-73
2023/04/01 02:01:25;;;;;;;1999.90;999.90;;;9.70;99.90;;;;;;4993600;28;20438;-73
2023/04/01 02:03:52;;;;;;;1999.90;999.90;;;9.50;99.90;;;;;;4993621;28;20412;-73
2023/04/01 02:06:21;;;;;;;1999.90;999.90;;;9.50;99.90;;;;;;4993025;28;20420;-74
2023/04/01 02:08:54;;;;;;;1999.90;999.90;;;9.70;99.90;;;;;;4993336;28;20908;-73
2023/04/01 02:11:27;;;;;;;1999.90;999.90;;;9.40;99.90;;;;;;4993523;28;20412;-72
2023/04/01 02:14:03;;;;;;;1999.90;999.90;;;9.50;99.90;;;;;;4993325;28;20410;-73
2023/04/01 02:16:55;;;;;;;1999.90;999.90;;;9.60;99.90;;;;;;4993277;28;20404;-73
2023/04/01 02:19:34;;;;;;;1999.90;999.90;;;9.50;99.90;;;;;;4993432;28;20845;-72
2023/04/01 02:22:04;;;;;;;1999.90;999.90;;;9.50;99.90;;;;;;4993314;28;20541;-73
2023/04/01 02:24:33;;;;;;;1999.90;999.90;;;9.50;99.90;;;;;;4993123;28;20438;-73
2023/04/01 02:26:58;;;;;;;1999.90;999.90;;;9.70;99.90;;;;;;4993060;28;20434;-73
2023/04/01 02:29:25;;;;;;;1999.90;999.90;;;9.50;99.90;;;;;;4993166;28;20474;-73
2023/04/01 02:31:53;;;;;;;1999.90;999.90;;;9.50;99.90;;;;;;4993138;28;20165;-73
2023/04/01 02:34:19;;;;;;;1999.90;999.90;;;9.50;99.90;;;;;;4992972;28;20399;-73
2023/04/01 02:36:46;;;;;;;1999.90;999.90;;;9.80;99.90;;;;;;4992953;28;20439;-73
2023/04/01 02:39:13;;;;;;;1999.90;999.90;;;9.70;99.90;;;;;;4993005;28;20478;-73
2023/04/01 02:41:40;;;;;;;1999.90;999.90;;;9.70;99.90;;;;;;4993035;28;20416;-73
2023/04/01 02:44:07;;;;;;;1999.90;999.90;;;9.70;99.90;;;;;;4992812;28;20415;-73
2023/04/01 02:46:32;;;;;;;1999.90;999.90;;;9.80;99.90;;;;;;4992669;28;20416;-74
2023/04/01 02:48:58;;;;;;;1999.90;999.90;;;9.70;99.90;;;;;;4992763;28;20961;-74
2023/04/01 02:51:25;;;;;;;1999.90;999.90;;;9.80;99.90;;;;;;4992946;28;20201;-74
2023/04/01 02:53:50;;;;;;;1999.90;999.90;;;10.00;99.90;;;;;;4992652;28;20168;-74
2023/04/01 02:56:16;;;;;;;1999.90;999.90;;;9.70;99.90;;;;;;4992739;28;20421;-74
2023/04/01 02:58:41;;;;;;;1999.90;999.90;;;9.70;99.90;;;;;;4992711;28;20192;-74
2023/04/01 03:01:08;;;;;;;1999.90;999.90;;;9.80;99.90;;;;;;4992545;28;20192;-74
2023/04/01 03:03:33;;;;;;;1999.90;999.90;;;10.00;99.90;;;;;;4992570;28;20188;-75
2023/04/01 03:06:08;;;;;;;1999.90;999.90;;;9.70;99.90;;;;;;4992592;28;20418;-74
2023/04/01 03:08:34;;;;;;;1999.90;999.90;;;9.80;99.90;;;;;;4992555;28;20250;-74
2023/04/01 03:11:00;;;;;;;1999.90;999.90;;;9.70;99.90;;;;;;4992732;28;20423;-74
2023/04/01 03:13:25;;;;;;;1999.90;999.90;;;9.80;99.90;;;;;;4992449;28;20897;-73
2023/04/01 03:15:51;;;;;;;1999.90;999.90;;;9.80;99.90;;;;;;4992697;28;20180;-74
2023/04/01 03:18:17;;;;;;;1999.90;999.90;;;9.60;99.90;;;;;;4992593;28;20685;-74
2023/04/01 03:20:43;;;;;;;1999.90;999.90;;;9.70;99.90;;;;;;4996710;28;20176;-74
2023/04/01 03:23:09;;;;;;;1999.90;999.90;;;9.70;99.90;;;;;;4996411;28;20412;-73
2023/04/01 03:25:34;;;;;;;1999.90;999.90;;;9.70;99.90;;;;;;4996644;28;20180;-73
2023/04/01 03:28:00;;;;;;;1999.90;999.90;;;9.90;99.90;;;;;;4996745;28;20528;-73
2023/04/01 03:30:26;;;;;;;1999.90;999.90;;;9.70;99.90;;;;;;4996451;28;20274;-74
2023/04/01 03:32:52;;;;;;;1999.90;999.90;;;9.70;99.90;;;;;;4996330;28;20614;-74
2023/04/01 03:35:18;;;;;;;1999.90;999.90;;;9.70;99.90;;;;;;4996411;28;20441;-74
2023/04/01 03:37:43;;;;;;;1999.90;999.90;;;9.70;99.90;;;;;;4996219;28;20208;-74
2023/04/01 03:40:09;;;;;;;1999.90;999.90;;;9.60;99.90;;;;;;4996391;28;20446;-74
2023/04/01 03:42:35;;;;;;;1999.90;999.90;;;9.60;99.90;;;;;;4996248;28;20184;-74
2023/04/01 03:45:02;;;;;;;1999.90;999.90;;;9.60;99.90;;;;;;4996249;28;20799;-74
2023/04/01 03:47:28;;;;;;;1999.90;999.90;;;9.60;99.90;;;;;;4996195;28;20220;-74
2023/04/01 03:49:54;;;;;;;1999.90;999.90;;;9.60;99.90;;;;;;4996169;28;20411;-73
2023/04/01 03:52:19;;;;;;;1999.90;999.90;;;9.60;99.90;;;;;;4996027;28;20422;-74
2023/04/01 03:54:45;;;;;;;1999.90;999.90;;;9.60;99.90;;;;;;4995851;28;20408;-73
2023/04/01 03:57:10;;;;;;;1999.90;999.90;;;9.50;99.90;;;;;;4995882;28;20522;-73
2023/04/01 03:59:36;;;;;;;1999.90;999.90;;;9.60;99.90;;;;;;4995913;28;20207;-73
2023/04/01 04:02:02;;;;;;;1999.90;999.90;;;9.60;99.90;;;;;;4995820;28;20218;-73
2023/04/01 04:04:27;;;;;;;1999.90;999.90;;;9.50;99.90;;;;;;4995703;28;20176;-73
2023/04/01 04:06:53;;;;;;;1999.90;999.90;;;9.60;99.90;;;;;;4995733;28;20194;-74
2023/04/01 04:09:19;;;;;;;1999.90;999.90;;;9.60;99.90;;;;;;4995744;28;20212;-74
2023/04/01 04:11:45;;;;;;;1999.90;999.90;;;9.60;99.90;;;;;;4995760;28;20466;-74
2023/04/01 04:14:10;;;;;;;1999.90;999.90;;;9.50;99.90;;;;;;4995447;28;20181;-74
2023/04/01 04:16:36;;;;;;;1999.90;999.90;;;9.60;99.90;;;;;;4995629;28;20180;-74
2023/04/01 04:19:03;;;;;;;1999.90;999.90;;;9.40;99.90;;;;;;4995662;28;20180;-75
2023/04/01 04:21:28;;;;;;;1999.90;999.90;;;9.20;99.90;;;;;;4995562;28;20468;-74
2023/04/01 04:23:54;;;;;;;1999.90;999.90;;;9.30;99.90;;;;;;4995347;28;20411;-74
2023/04/01 04:26:20;;;;;;;1999.90;999.90;;;9.50;99.90;;;;;;4995413;28;20185;-74
2023/04/01 04:28:45;;;;;;;1999.90;999.90;;;9.40;99.90;;;;;;4995216;28;20664;-74
2023/04/01 04:31:11;;;;;;;1999.90;999.90;;;9.40;99.90;;;;;;4994942;28;20255;-75
2023/04/01 04:33:37;;;;;;;1999.90;999.90;;;9.50;99.90;;;;;;4995182;28;20591;-75
2023/04/01 04:36:04;;;;;;;1999.90;999.90;;;9.30;99.90;;;;;;4995164;28;20507;-75
2023/04/01 04:38:29;;;;;;;1999.90;999.90;;;9.30;99.90;;;;;;4995257;28;20194;-75
2023/04/01 04:40:55;;;;;;;1999.90;999.90;;;9.30;99.90;;;;;;4995278;28;20422;-75
2023/04/01 04:43:21;;;;;;;1999.90;999.90;;;9.40;99.90;;;;;;4994945;28;20178;-74
2023/04/01 04:45:47;;;;;;;1999.90;999.90;;;9.30;99.90;;;;;;4995115;28;20178;-75
2023/04/01 04:48:18;;;;;;;1999.90;999.90;;;9.30;99.90;;;;;;4994829;28;20994;-74
2023/04/01 04:50:45;;;;;;;1999.90;999.90;;;9.40;99.90;;;;;;4995070;28;20406;-74
2023/04/01 04:53:12;;;;;;;1999.90;999.90;;;9.30;99.90;;;;;;4994743;28;20408;-75
2023/04/01 04:55:43;;;;;;;1999.90;999.90;;;9.30;99.90;;;;;;4994987;28;20412;-74
2023/04/01 04:58:09;;;;;;;1999.90;999.90;;;9.30;99.90;;;;;;4994754;28;20434;-75
2023/04/01 05:00:35;;;;;;;1999.90;999.90;;;9.50;99.90;;;;;;4994813;28;20444;-74
2023/04/01 05:03:00;;;;;;;1999.90;999.90;;;9.40;99.90;;;;;;4994722;28;20258;-74
2023/04/01 05:05:26;;;;;;;1999.90;999.90;;;9.40;99.90;;;;;;4994812;28;20833;-74
2023/04/01 05:07:52;;;;;;;1999.90;999.90;;;9.50;99.90;;;;;;4994564;28;20275;-74
2023/04/01 05:10:17;;;;;;;1999.90;999.90;;;9.40;99.90;;;;;;4994729;28;20174;-74
2023/04/01 05:12:43;;;;;;;1999.90;999.90;;;9.30;99.90;;;;;;4994532;28;20177;-74
2023/04/01 05:15:09;;;;;;;1999.90;999.90;;;9.50;99.90;;;;;;4994559;28;20363;-75
2023/04/01 05:17:34;;;;;;;1999.90;999.90;;;9.40;99.90;;;;;;4994398;28;20201;-74
2023/04/01 05:20:00;;;;;;;1999.90;999.90;;;9.40;99.90;;;;;;4994522;28;20462;-75
2023/04/01 05:22:26;;;;;;;1999.90;999.90;;;9.40;99.90;;;;;;4994537;28;20184;-75
2023/04/01 05:24:52;;;;;;;1999.90;999.90;;;9.40;99.90;;;;;;4994209;28;20502;-75
2023/04/01 05:27:17;;;;;;;1999.90;999.90;;;9.40;99.90;;;;;;4994310;28;20202;-75
2023/04/01 05:29:43;;;;;;;1999.90;999.90;;;9.40;99.90;;;;;;4994560;28;20310;-74
2023/04/01 05:32:09;;;;;;;1999.90;999.90;;;9.40;99.90;;;;;;4994437;28;20185;-74
2023/04/01 05:34:34;;;;;;;1999.90;999.90;;;9.50;99.90;;;;;;4994068;28;20200;-75
2023/04/01 05:37:00;;;;;;;1999.90;999.90;;;9.50;99.90;;;;;;4994117;28;20570;-75
2023/04/01 05:39:26;;;;;;;1999.90;999.90;;;9.50;99.90;;;;;;4994101;28;20173;-75
2023/04/01 05:41:51;;;;;;;1999.90;999.90;;;9.30;99.90;;;;;;4993257;28;20607;-75
2023/04/01 05:44:17;;;;;;;1999.90;999.90;;;9.40;99.90;;;;;;4993883;28;20411;-75
2023/04/01 05:46:43;;;;;;;1999.90;999.90;;;9.50;99.90;;;;;;4993863;28;20183;-75
2023/04/01 05:49:08;;;;;;;1999.90;999.90;;;9.30;99.90;;;;;;4993913;28;20453;-75
2023/04/01 05:51:34;;;;;;;1999.90;999.90;;;9.30;99.90;;;;;;4993956;28;20174;-75
2023/04/01 05:53:59;;;;;;;1999.90;999.90;;;9.50;99.90;;;;;;4993637;28;20183;-75
2023/04/01 05:56:25;;;;;;;1999.90;999.90;;;9.50;99.90;;;;;;4993686;28;20652;-75
2023/04/01 05:58:53;;;;;;;1999.90;999.90;;;9.40;99.90;;;;;;4993761;28;20188;-75
2023/04/01 06:01:19;;;;;;;1999.90;999.90;;;9.40;99.90;;;;;;4993592;28;20283;-75
2023/04/01 06:03:45;;;;;;;1999.90;999.90;;;9.40;99.90;;;;;;4993540;28;20423;-75
2023/04/01 06:06:15;;;;;;;1999.90;999.90;;;9.40;99.90;;;;;;4993541;28;20408;-75
2023/04/01 06:08:41;;;;;;;1999.90;999.90;;;9.50;99.90;;;;;;4993348;28;20473;-75
2023/04/01 06:11:22;;;;;;;1999.90;999.90;;;9.50;99.90;;;;;;4993491;28;20973;-75
2023/04/01 06:14:11;;;;;;;1999.90;999.90;;;9.50;99.90;;;;;;4993336;28;20438;-75
2023/04/01 06:16:52;;;;;;;1999.90;999.90;;;9.50;99.90;;;;;;4993354;28;20411;-75
2023/04/01 06:19:34;;;;;;;1999.90;999.90;;;9.50;99.90;;;;;;4993432;28;20395;-75
2023/04/01 06:22:33;;;;;;;1999.90;999.90;;;9.50;99.90;;;;;;4993382;28;20423;-75
2023/04/01 06:25:14;;;;;;;1999.90;999.90;;;9.50;99.90;;;;;;4993168;28;20904;-75
2023/04/01 06:28:01;;;;;;;1999.90;999.90;;;9.50;99.90;;;;;;4991744;28;20474;-75
2023/04/01 06:30:55;;;;;;;1999.90;999.90;;;9.60;99.90;;;;;;4993316;28;20493;-75
2023/04/01 06:33:31;;;;;;;1999.90;999.90;;;9.50;99.90;;;;;;4992989;28;20490;-75
2023/04/01 06:36:27;;;;;;;1999.90;999.90;;;9.60;99.90;;;;;;4993044;28;20399;-74
2023/04/01 06:39:25;;;;;;;1999.90;999.90;;;9.50;99.90;;;;;;4993126;28;20486;-75
2023/04/01 06:42:15;;;;;;;1999.90;999.90;;;9.50;99.90;;;;;;4993039;28;20925;-75
2023/04/01 06:44:50;;;;;;;1999.90;999.90;;;9.50;99.90;;;;;;4992891;28;20940;-75
2023/04/01 06:47:37;;;;;;;1999.90;999.90;;;9.50;99.90;;;;;;4992630;28;20417;-74
2023/04/01 06:50:30;;;;;;;1999.90;999.90;;;9.50;99.90;;;;;;4992929;28;20403;-74
2023/04/01 06:53:26;;;;;;;1999.90;999.90;;;9.50;99.90;;;;;;4992683;28;20788;-75
2023/04/01 06:56:01;;;;;;;1999.90;999.90;;;9.60;99.90;;;;;;4992491;28;20403;-74
2023/04/01 06:58:46;;;;;;;1999.90;999.90;;;9.50;99.90;;;;;;4992802;28;20779;-74
2023/04/01 07:01:19;;;;;;;1999.90;999.90;;;9.60;99.90;;;;;;4992752;28;20513;-74
2023/04/01 07:03:52;;;;;;;1999.90;999.90;;;9.70;99.90;;;;;;4992733;28;20425;-74
2023/04/01 07:06:31;;;;;;;1999.90;999.90;;;9.60;99.90;;;;;;4992727;28;20452;-75
2023/04/01 07:09:00;;;;;;;1999.90;999.90;;;9.60;99.90;;;;;;4992606;28;20925;-74
2023/04/01 07:11:34;;;;;;;1999.90;999.90;;;9.80;99.90;;;;;;4992756;28;20419;-75
2023/04/01 07:14:09;;;;;;;1999.90;999.90;;;9.50;99.90;;;;;;4992718;28;20402;-75
2023/04/01 07:17:12;;;;;;;1999.90;999.90;;;9.30;99.90;;;;;;4992489;28;20484;-75
2023/04/01 07:20:01;;;;;;;1999.90;999.90;;;9.50;99.90;;;;;;4991253;28;20775;-75
2023/04/01 07:22:38;;;;;;;1999.90;999.90;;;9.50;99.90;;;;;;4992544;28;20406;-75
2023/04/01 07:25:18;;;;;;;1999.90;999.90;;;9.70;99.90;;;;;;4992352;28;20408;-75
2023/04/01 07:27:46;;;;;;;1999.90;999.90;;;9.60;99.90;;;;;;4992261;28;20451;-75
2023/04/01 07:30:19;;;;;;;1999.90;999.90;;;9.60;99.90;;;;;;4992698;28;20451;-75
2023/04/01 07:32:50;;;;;;;1999.90;999.90;;;9.60;99.90;;;;;;4992435;28;20408;-75
2023/04/01 07:35:21;;;;;;;1999.90;999.90;;;9.60;99.90;;;;;;4992444;28;20910;-75
2023/04/01 07:38:29;;;;;;;1999.90;999.90;;;9.80;99.90;;;;;;4992295;28;20440;-75
2023/04/01 07:41:16;;;;;;;1999.90;999.90;;;9.60;99.90;;;;;;4992476;28;20410;-75
2023/04/01 07:43:45;;;;;;;1999.90;999.90;;;9.60;99.90;;;;;;4992212;28;20412;-75
2023/04/01 07:46:34;;;;;;;1999.90;999.90;;;9.60;99.90;;;;;;4992356;28;20459;-75
2023/04/01 07:49:06;;;;;;;1999.90;999.90;;;9.60;99.90;;;;;;4992365;28;20492;-76
2023/04/01 07:51:47;;;;;;;1999.90;999.90;;;9.60;99.90;;;;;;4992298;28;20764;-76
2023/04/01 07:54:43;;;;;;;1999.90;999.90;;;9.60;99.90;;;;;;4992151;28;20426;-76
2023/04/01 07:57:15;;;;;;;1999.90;999.90;;;10.00;99.90;;;;;;4991949;28;20451;-76
2023/04/01 07:59:48;;;;;;;1999.90;999.90;;;9.70;99.90;;;;;;4992138;28;20408;-76
2023/04/01 08:02:56;;;;;;;1999.90;999.90;;;9.60;99.90;;;;;;4990865;28;20430;-77
2023/04/01 08:06:05;;;;;;;1999.90;999.90;;;9.60;99.90;;;;;;4990895;28;20415;-73
2023/04/01 08:08:59;;;;;;;1999.90;999.90;;;9.30;99.90;;;;;;4972296;28;21072;-74
2023/04/01 08:11:30;;;;;;;1999.90;999.90;;;10.40;99.90;;;;;;4991106;28;20776;-74
2023/04/01 08:14:22;;;;;;;1999.90;999.90;;;9.70;99.90;;;;;;4991371;28;20419;-75
2023/04/01 08:17:04;;;;;;;1999.90;999.90;;;9.70;99.90;;;;;;4991620;28;20515;-76
2023/04/01 08:19:51;;;;;;;1999.90;999.90;;;9.70;99.90;;;;;;4992321;28;21013;-77
2023/04/01 08:22:42;;;;;;;1999.90;999.90;;;9.50;99.90;;;;;;4991937;28;20443;-74
2023/04/01 08:28:13;;;;;;;1999.90;999.90;;;9.70;99.90;;;;;;4991663;28;20471;-76
2023/04/01 08:30:41;;;;;;;1999.90;999.90;;;9.70;99.90;;;;;;4995706;28;20434;-75
2023/04/01 08:33:27;;;;;;;1999.90;999.90;;;9.70;99.90;;;;;;4998856;28;20838;-77
2023/04/01 08:35:59;;;;;;;1999.90;999.90;;;9.70;99.90;;;;;;4997511;28;20438;-76
2023/04/01 08:38:36;;;;;;;1999.90;999.90;;;9.70;99.90;;;;;;4997836;28;20467;-78
2023/04/01 08:41:10;;;;;;;1999.90;999.90;;;9.70;99.90;;;;;;4998260;28;20454;-75
2023/04/01 08:44:09;;;;;;;1999.90;999.90;;;9.70;99.90;;;;;;4998232;28;20422;-77
2023/04/01 08:47:03;;;;;;;1999.90;999.90;;;9.80;99.90;;;;;;4999575;28;20764;-76
2023/04/01 08:50:07;;;;;;;1999.90;999.90;;;9.70;99.90;;;;;;5001368;28;20448;-76
2023/04/01 08:52:40;;;;;;;1999.90;999.90;;;9.70;99.90;;;;;;4998226;28;20429;-76
2023/04/01 08:55:51;;;;;;;1999.90;999.90;;;9.70;99.90;;;;;;4999760;28;20433;-78
2023/04/01 08:58:40;;;;;;;1999.90;999.90;;;9.70;99.90;;;;;;4993283;28;20447;-75
2023/04/01 09:01:25;;;;;;;1999.90;999.90;;;9.70;99.90;;;;;;4991423;28;20436;-74
2023/04/01 09:04:15;;;;;;;1999.90;999.90;;;9.70;99.90;;;;;;4990969;28;20427;-75
2023/04/01 09:07:22;;;;;;;1999.90;999.90;;;9.80;99.90;;;;;;4991523;28;20417;-75
2023/04/01 09:09:50;;;;;;;1999.90;999.90;;;9.70;99.90;;;;;;4990969;28;20444;-74
2023/04/01 09:12:25;;;;;;;1999.90;999.90;;;9.70;99.90;;;;;;4990093;28;20404;-75
2023/04/01 09:15:16;;;;;;;1999.90;999.90;;;9.90;99.90;;;;;;4989922;28;20415;-75
2023/04/01 09:17:51;;;;;;;1999.90;999.90;;;9.80;99.90;;;;;;4989433;28;20429;-74
2023/04/01 09:20:32;;;;;;;1999.90;999.90;;;9.80;99.90;;;;;;4990497;28;20442;-76
2023/04/01 09:23:35;;;;;;;1999.90;999.90;;;9.80;99.90;;;;;;4990415;28;20420;-76
2023/04/01 09:26:08;;;;;;;1999.90;999.90;;;9.80;99.90;;;;;;4990634;28;20441;-75
2023/04/01 09:28:48;;;;;;;1999.90;999.90;;;9.80;99.90;;;;;;4990755;28;21044;-74
2023/04/01 09:31:50;;;;;;;1999.90;999.90;;;9.90;99.90;;;;;;4990595;28;20415;-74
2023/04/01 09:34:37;;;;;;;1999.90;999.90;;;9.90;99.90;;;;;;4989931;28;20411;-74
2023/04/01 09:37:09;;;;;;;1999.90;999.90;;;9.90;99.90;;;;;;4990143;28;20482;-74
2023/04/01 09:39:45;;;;;;;1999.90;999.90;;;10.00;99.90;;;;;;4990182;28;20469;-74
2023/04/01 09:42:42;;;;;;;1999.90;999.90;;;10.10;99.90;;;;;;4990357;28;20411;-74
2023/04/01 09:45:23;;;;;;;1999.90;999.90;;;10.00;99.90;;;;;;4989148;28;20470;-74
2023/04/01 09:48:07;;;;;;;1999.90;999.90;;;10.10;99.90;;;;;;4989285;28;20452;-74
2023/04/01 09:51:00;;;;;;;1999.90;999.90;;;10.20;99.90;;;;;;4990179;28;20940;-74
2023/04/01 09:53:29;;;;;;;1999.90;999.90;;;10.10;99.90;;;;;;4989236;28;20421;-74
2023/04/01 09:55:57;;;;;;;1999.90;999.90;;;10.20;99.90;;;;;;4989751;28;20450;-73
2023/04/01 09:58:48;;;;;;;1999.90;999.90;;;10.20;99.90;;;;;;4989499;28;20490;-75
2023/04/01 10:01:46;;;;;;;1999.90;999.90;;;10.40;99.90;;;;;;4989484;28;20521;-74
2023/04/01 10:04:29;;;;;;;1999.90;999.90;;;10.20;99.90;;;;;;4989917;28;20431;-76
2023/04/01 10:07:23;;;;;;;1999.90;999.90;;;10.20;99.90;;;;;;4990387;28;20453;-75
2023/04/01 10:10:16;;;;;;;1999.90;999.90;;;10.30;99.90;;;;;;4989666;28;20526;-76
2023/04/01 10:13:09;;;;;;;1999.90;999.90;;;10.30;99.90;;;;;;4990093;28;20420;-75
2023/04/01 10:16:03;;;;;;;1999.90;999.90;;;10.40;99.90;;;;;;4989411;28;20449;-75
2023/04/01 10:18:50;;;;;;;1999.90;999.90;;;10.40;99.90;;;;;;4989700;28;20417;-75
2023/04/01 10:21:47;;;;;;;1999.90;999.90;;;10.50;99.90;;;;;;4988897;28;20502;-75
2023/04/01 10:24:37;;;;;;;1999.90;999.90;;;10.50;99.90;;;;;;4989161;28;20847;-75
2023/04/01 10:27:10;;;;;;;1999.90;999.90;;;10.60;99.90;;;;;;4987558;28;20460;-76
2023/04/01 10:30:09;;;;;;;1999.90;999.90;;;10.50;99.90;;;;;;4989300;28;20558;-76
2023/04/01 10:32:59;;;;;;;1999.90;999.90;;;10.60;99.90;;;;;;4990238;28;20832;-76
2023/04/01 10:35:25;;;;;;;1999.90;999.90;;;10.60;99.90;;;;;;4988932;28;20415;-76
2023/04/01 10:37:56;;;;;;;1999.90;999.90;;;10.70;99.90;;;;;;4989438;28;20436;-75
2023/04/01 10:40:30;;;;;;;1999.90;999.90;;;10.60;99.90;;;;;;4989555;28;20216;-76
2023/04/01 10:43:33;;;;;;;1999.90;999.90;;;10.60;99.90;;;;;;4989632;28;20420;-76
2023/04/01 10:46:36;;;;;;;1999.90;999.90;;;10.50;99.90;;;;;;4989279;28;20827;-77
2023/04/01 10:49:44;;;;;;;1999.90;999.90;;;10.40;99.90;;;;;;4988845;28;20456;-77
2023/04/01 10:52:47;;;;;;;1999.90;999.90;;;10.40;99.90;;;;;;4989094;28;20419;-77
2023/04/01 10:55:31;;;;;;;1999.90;999.90;;;10.30;99.90;;;;;;4989166;28;20425;-77
2023/04/01 10:58:14;;;;;;;1999.90;999.90;;;10.20;99.90;;;;;;4988895;28;20425;-77
2023/04/01 11:01:02;;;;;;;1999.90;999.90;;;10.30;99.90;;;;;;4989221;28;20423;-76
2023/04/01 11:04:02;;;;;;;1999.90;999.90;;;10.40;99.90;;;;;;4989521;28;20419;-76
2023/04/01 11:06:27;;;;;;;1999.90;999.90;;;10.60;99.90;;;;;;4989700;28;20474;-77
2023/04/01 11:09:15;;;;;;;1999.90;999.90;;;10.30;99.90;;;;;;4988875;28;20456;-77
2023/04/01 11:12:18;;;;;;;1999.90;999.90;;;10.60;99.90;;;;;;4989449;28;20613;-76
2023/04/01 11:15:02;;;;;;;1999.90;999.90;;;10.60;99.90;;;;;;4989434;28;20433;-77
2023/04/01 11:18:05;;;;;;;1999.90;999.90;;;10.50;99.90;;;;;;4989710;28;20424;-77
2023/04/01 11:20:50;;;;;;;1999.90;999.90;;;10.60;99.90;;;;;;4988838;28;20416;-77
2023/04/01 11:23:21;;;;;;;1999.90;999.90;;;10.80;99.90;;;;;;4989026;28;20415;-76
2023/04/01 11:25:49;;;;;;;1999.90;999.90;;;10.60;99.90;;;;;;4988828;28;20411;-77
2023/04/01 11:28:21;;;;;;;1999.90;999.90;;;10.70;99.90;;;;;;4988273;28;20510;-76
2023/04/01 11:31:24;;;;;;;1999.90;999.90;;;10.70;99.90;;;;;;4988930;28;20439;-77
2023/04/01 11:34:13;;;;;;;1999.90;999.90;;;10.70;99.90;;;;;;4989141;28;20413;-76
2023/04/01 11:37:05;;;;;;;1999.90;999.90;;;10.40;99.90;;;;;;4987416;28;20431;-77
2023/04/01 11:39:57;;;;;;;1999.90;999.90;;;10.70;99.90;;;;;;4990227;28;20439;-76
2023/04/01 11:42:41;;;;;;;1999.90;999.90;;;10.70;99.90;;;;;;4992875;28;20623;-77
2023/04/01 11:45:06;;;;;;;1999.90;999.90;;;10.70;99.90;;;;;;4992933;28;20496;-77
2023/04/01 11:47:56;;;;;;;1999.90;999.90;;;10.70;99.90;;;;;;4992191;28;20519;-76
2023/04/01 11:50:27;;;;;;;1999.90;999.90;;;10.90;99.90;;;;;;4992486;28;20180;-76
2023/04/01 11:53:14;;;;;;;1999.90;999.90;;;11.00;99.90;;;;;;4992508;28;20424;-77
2023/04/01 11:55:57;;;;;;;1999.90;999.90;;;10.90;99.90;;;;;;4993380;28;20514;-75
2023/04/01 11:58:34;;;;;;;1999.90;999.90;;;10.90;99.90;;;;;;4993776;28;20432;-76
2023/04/01 12:01:15;;;;;;;1999.90;999.90;;;10.90;99.90;;;;;;4993313;28;20857;-76
2023/04/01 12:04:07;;;;;;;1999.90;999.90;;;10.90;99.90;;;;;;4993576;28;20464;-75
2023/04/01 12:06:53;;;;;;;1999.90;999.90;;;10.90;99.90;;;;;;4991676;28;20479;-76
2023/04/01 12:09:38;;;;;;;1999.90;999.90;;;10.90;99.90;;;;;;4993119;28;20455;-71
2023/04/01 12:12:20;;;;;;;1999.90;999.90;;;10.90;99.90;;;;;;4992211;28;20421;-72
2023/04/01 12:15:04;;;;;;;1999.90;999.90;;;10.90;99.90;;;;;;4991936;28;20427;-72
2023/04/01 12:17:54;;;;;;;1999.90;999.90;;;10.80;99.90;;;;;;4991216;28;20435;-72
2023/04/01 12:20:40;;;;;;;1999.90;999.90;;;10.80;99.90;;;;;;4992135;28;20421;-74
2023/04/01 12:23:32;;;;;;;1999.90;999.90;;;10.80;99.90;;;;;;4991173;28;20443;-73
2023/04/01 12:26:24;;;;;;;1999.90;999.90;;;10.80;99.90;;;;;;4991605;28;20405;-70
2023/04/01 12:29:09;;;;;;;1999.90;999.90;;;10.90;99.90;;;;;;4990412;28;20496;-71
2023/04/01 12:32:01;;;;;;;1999.90;999.90;;;10.90;99.90;;;;;;4991228;28;20568;-70
2023/04/01 12:34:57;;;;;;;1999.90;999.90;;;11.00;99.90;;;;;;4992208;28;20413;-73
2023/04/01 12:37:35;;;;;;;1999.90;999.90;;;11.10;99.90;;;;;;4992254;28;20511;-73
2023/04/01 12:40:19;;;;;;;1999.90;999.90;;;11.20;99.90;;;;;;4991320;28;20420;-75
2023/04/01 12:42:59;;;;;;;1999.90;999.90;;;11.30;99.90;;;;;;4992199;28;20417;-73
2023/04/01 12:45:30;;;;;;;1999.90;999.90;;;11.40;99.90;;;;;;4992434;28;20463;-73
2023/04/01 12:48:24;;;;;;;1999.90;999.90;;;11.40;99.90;;;;;;4990631;28;20551;-75
2023/04/01 12:51:10;;;;;;;1999.90;999.90;;;11.50;99.90;;;;;;4990211;28;20872;-75
2023/04/01 12:53:44;;;;;;;1999.90;999.90;;;11.50;99.90;;;;;;4989611;28;20416;-75
2023/04/01 12:56:22;;;;;;;1999.90;999.90;;;11.40;99.90;;;;;;4990104;28;20412;-75